createdAt,value
2019-05-02T00:00:16.100Z,100765.73
2019-05-02T00:02:47.337Z,100765.73
2019-05-02T00:05:18.253Z,100762.78
2019-05-02T00:07:47.616Z,100762.40
2019-05-02T00:10:19.975Z,100749.03
2019-05-02T00:12:51.282Z,100749.03
2019-05-02T00:15:21.485Z,100755.25
2019-05-02T00:17:50.878Z,100758.25
2019-05-02T00:20:21.105Z,100754.92
2019-05-02T00:22:52.493Z,100756.94
2019-05-02T00:25:22.784Z,100757.25
2019-05-02T00:27:52.670Z,100752.93
2019-05-02T00:30:22.511Z,100749.60
2019-05-02T00:32:53.282Z,100749.34
2019-05-02T00:35:23.254Z,100755.98
2019-05-02T00:37:52.639Z,100754.42
2019-05-02T00:40:25.615Z,100746.16
2019-05-02T00:42:58.339Z,100752.56
2019-05-02T00:45:25.938Z,100751.06
2019-05-02T00:48:12.741Z,100745.05
2019-05-02T00:50:45.273Z,100742.25
2019-05-02T00:53:13.702Z,100742.25
2019-05-02T00:55:45.040Z,100738.99
2019-05-02T00:58:14.408Z,100742.14
2019-05-02T01:01:02.421Z,100739.64
2019-05-02T01:03:33.438Z,100734.08
2019-05-02T01:06:04.137Z,100729.44
2019-05-02T01:08:35.644Z,100729.82
2019-05-02T01:11:04.580Z,100728.40
2019-05-02T01:13:33.968Z,100726.30
2019-05-02T01:16:03.417Z,100725.22
2019-05-02T01:18:37.195Z,100723.88
2019-05-02T01:21:04.235Z,100719.69
2019-05-02T01:23:33.587Z,100721.21
2019-05-02T01:26:02.964Z,100716.05
2019-05-02T01:28:53.823Z,100711.94
2019-05-02T01:31:36.993Z,100709.25
2019-05-02T01:34:08.161Z,100708.29
2019-05-02T01:36:41.219Z,100708.29
2019-05-02T01:39:13.020Z,100704.91
2019-05-02T01:41:42.563Z,100704.91
2019-05-02T01:44:12.922Z,100700.77
2019-05-02T01:46:42.644Z,100694.63
2019-05-02T01:49:12.021Z,100692.83
2019-05-02T01:51:47.082Z,100702.22
2019-05-02T01:54:13.671Z,100701.23
2019-05-02T01:56:43.089Z,100699.36
2019-05-02T01:59:12.619Z,100690.98
2019-05-02T02:01:41.977Z,100690.98
2019-05-02T02:04:16.268Z,100692.39
2019-05-02T02:06:45.125Z,100685.81
2019-05-02T02:09:14.626Z,100679.66
2019-05-02T02:11:44.949Z,100688.35
2019-05-02T02:14:18.404Z,100680.30
2019-05-02T02:16:46.389Z,100677.36
2019-05-02T02:19:26.525Z,100677.36
2019-05-02T02:22:02.752Z,100679.16
2019-05-02T02:24:33.442Z,100678.41
2019-05-02T02:27:02.964Z,100670.27
2019-05-02T02:29:32.632Z,100670.90
2019-05-02T02:32:02.333Z,100670.90
2019-05-02T02:34:32.573Z,100667.45
2019-05-02T02:37:09.706Z,100666.82
2019-05-02T02:39:34.049Z,100664.63
2019-05-02T02:42:03.787Z,100659.84
2019-05-02T02:44:41.884Z,100653.89
2019-05-02T02:47:18.286Z,100650.21
2019-05-02T02:49:42.809Z,100647.01
2019-05-02T02:52:12.197Z,100647.01
2019-05-02T02:54:43.469Z,100648.94
2019-05-02T02:57:20.855Z,100648.94
2019-05-02T02:59:45.065Z,100649.11
2019-05-02T03:02:14.770Z,100635.23
2019-05-02T03:04:46.403Z,100643.17
2019-05-02T03:07:24.138Z,100633.69
2019-05-02T03:09:48.086Z,100631.00
2019-05-02T03:12:22.283Z,100624.99
2019-05-02T03:14:53.703Z,100628.78
2019-05-02T03:17:26.595Z,100620.39
2019-05-02T03:20:01.208Z,100626.73
2019-05-02T03:22:25.932Z,100618.67
2019-05-02T03:24:55.369Z,100618.67
2019-05-02T03:27:29.989Z,100613.56
2019-05-02T03:29:55.932Z,100616.25
2019-05-02T03:32:33.378Z,100606.37
2019-05-02T03:34:56.406Z,100611.75
2019-05-02T03:37:25.934Z,100607.55
2019-05-02T03:39:58.031Z,100611.45
2019-05-02T03:42:26.837Z,100606.92
2019-05-02T03:45:03.852Z,100606.92
2019-05-02T03:47:27.941Z,100605.33
2019-05-02T03:49:57.288Z,100606.28
2019-05-02T03:52:26.898Z,100596.89
2019-05-02T03:54:56.764Z,100596.89
2019-05-02T03:57:33.564Z,100601.30
2019-05-02T03:59:57.888Z,100604.95
2019-05-02T04:02:27.638Z,100601.88
2019-05-02T04:05:00.438Z,100600.08
2019-05-02T04:07:39.337Z,100597.14
2019-05-02T04:10:02.841Z,100594.25
2019-05-02T04:12:33.372Z,100597.64
2019-05-02T04:15:03.048Z,100589.71
2019-05-02T04:17:35.357Z,100595.08
2019-05-02T04:20:09.620Z,100592.06
2019-05-02T04:22:42.786Z,100586.88
2019-05-02T04:25:08.034Z,100590.98
2019-05-02T04:27:37.427Z,100590.98
2019-05-02T04:30:11.228Z,100591.60
2019-05-02T04:32:42.748Z,100591.60
2019-05-02T04:35:09.794Z,100594.48
2019-05-02T04:37:41.286Z,100587.61
2019-05-02T04:40:12.329Z,100589.91
2019-05-02T04:42:41.418Z,100589.91
2019-05-02T04:45:21.691Z,100581.92
2019-05-02T04:47:42.724Z,100581.92
2019-05-02T04:50:18.323Z,100575.42
2019-05-02T04:52:48.381Z,100579.08
2019-05-02T04:55:22.973Z,100577.08
2019-05-02T04:57:50.687Z,100580.84
2019-05-02T05:00:21.152Z,100584.70
2019-05-02T05:02:53.079Z,100580.73
2019-05-02T05:05:25.682Z,100581.73
2019-05-02T05:07:53.227Z,100583.63
2019-05-02T05:10:22.899Z,100579.72
2019-05-02T05:12:52.307Z,100579.84
2019-05-02T05:15:35.914Z,100573.94
2019-05-02T05:17:53.288Z,100577.84
2019-05-02T05:20:23.005Z,100573.81
2019-05-02T05:22:52.679Z,100567.85
2019-05-02T05:25:37.706Z,100575.02
2019-05-02T05:28:09.111Z,100575.02
2019-05-02T05:30:45.163Z,100575.64
2019-05-02T05:33:10.254Z,100571.98
2019-05-02T05:35:43.276Z,100570.58
2019-05-02T05:38:11.460Z,100570.58
2019-05-02T05:40:41.169Z,100564.41
2019-05-02T05:43:14.376Z,100564.41
2019-05-02T05:45:53.329Z,100562.98
2019-05-02T05:48:13.898Z,100559.92
2019-05-02T05:50:43.397Z,100562.08
2019-05-02T05:53:17.107Z,100563.04
2019-05-02T05:55:47.235Z,100565.38
2019-05-02T05:58:18.722Z,100563.48
2019-05-02T06:00:53.746Z,100574.01
2019-05-02T06:03:18.917Z,100566.81
2019-05-02T06:05:48.504Z,100566.81
2019-05-02T06:08:19.795Z,100561.94
2019-05-02T06:10:50.730Z,100562.21
2019-05-02T06:13:20.211Z,100564.70
2019-05-02T06:16:01.636Z,100563.60
2019-05-02T06:18:20.675Z,100552.22
2019-05-02T06:20:50.394Z,100553.80
2019-05-02T06:23:20.078Z,100552.70
2019-05-02T06:25:49.485Z,100553.77
2019-05-02T06:28:18.878Z,100547.05
2019-05-02T06:30:48.574Z,100556.45
2019-05-02T06:33:18.692Z,100548.32
2019-05-02T06:35:51.891Z,100547.48
2019-05-02T06:38:21.710Z,100546.98
2019-05-02T06:40:50.865Z,100542.97
2019-05-02T06:43:20.798Z,100544.42
2019-05-02T06:45:51.555Z,100545.28
2019-05-02T06:48:21.235Z,100541.02
2019-05-02T06:50:50.903Z,100538.35
2019-05-02T06:53:20.363Z,100537.63
2019-05-02T06:55:49.730Z,100530.27
2019-05-02T06:58:19.384Z,100532.23
2019-05-02T07:00:57.392Z,100527.69
2019-05-02T07:03:20.376Z,100519.39
2019-05-02T07:05:49.746Z,100519.39
2019-05-02T07:08:19.583Z,100518.06
2019-05-02T07:10:49.521Z,100515.01
2019-05-02T07:13:19.178Z,100515.01
2019-05-02T07:15:50.246Z,100520.50
2019-05-02T07:18:21.577Z,100520.50
2019-05-02T07:20:51.271Z,100522.34
2019-05-02T07:23:20.643Z,100521.38
2019-05-02T07:25:50.323Z,100528.34
2019-05-02T07:28:19.704Z,100530.77
2019-05-02T07:30:49.374Z,100521.26
2019-05-02T07:33:18.767Z,100520.62
2019-05-02T07:35:48.510Z,100521.00
2019-05-02T07:38:20.249Z,100516.11
2019-05-02T07:40:52.994Z,100517.09
2019-05-02T07:43:22.181Z,100516.23
2019-05-02T07:45:52.871Z,100516.23
2019-05-02T07:48:22.382Z,100514.62
2019-05-02T07:50:52.378Z,100520.14
2019-05-02T07:53:22.463Z,100511.56
2019-05-02T07:55:51.856Z,100511.56
2019-05-02T07:58:21.544Z,100514.98
2019-05-02T08:00:50.945Z,100514.98
2019-05-02T08:03:20.482Z,100522.94
2019-05-02T08:05:54.444Z,100512.67
2019-05-02T08:08:24.968Z,100517.69
2019-05-02T08:10:53.846Z,100514.72
2019-05-02T08:13:23.684Z,100515.08
2019-05-02T08:15:53.635Z,100515.08
2019-05-02T08:18:25.255Z,100518.60
2019-05-02T08:20:56.116Z,100518.72
2019-05-02T08:23:27.727Z,100515.33
2019-05-02T08:25:56.846Z,100524.86
2019-05-02T08:28:31.066Z,100521.53
2019-05-02T08:31:01.891Z,100521.53
2019-05-02T08:33:34.805Z,100520.12
2019-05-02T08:36:03.038Z,100520.09
2019-05-02T08:38:32.571Z,100519.71
2019-05-02T08:41:01.965Z,100519.69
2019-05-02T08:43:31.675Z,100518.91
2019-05-02T08:46:01.338Z,100512.80
2019-05-02T08:48:30.739Z,100506.81
2019-05-02T08:51:00.206Z,100505.73
2019-05-02T08:53:29.587Z,100509.31
2019-05-02T08:55:59.274Z,100497.02
2019-05-02T08:58:28.727Z,100502.84
2019-05-02T09:00:58.128Z,100504.62
2019-05-02T09:03:27.535Z,100490.98
2019-05-02T09:06:05.488Z,100492.61
2019-05-02T09:08:28.763Z,100490.16
2019-05-02T09:10:58.750Z,100489.33
2019-05-02T09:13:29.517Z,100492.92
2019-05-02T09:15:59.088Z,100492.50
2019-05-02T09:18:35.129Z,100488.39
2019-05-02T09:21:02.003Z,100492.83
2019-05-02T09:23:35.377Z,100488.68
2019-05-02T09:26:02.902Z,100492.98
2019-05-02T09:28:32.566Z,100489.33
2019-05-02T09:31:06.361Z,100489.68
2019-05-02T09:33:36.775Z,100482.72
2019-05-02T09:36:04.262Z,100486.28
2019-05-02T09:38:33.713Z,100488.69
2019-05-02T09:41:15.360Z,100489.53
2019-05-02T09:43:39.026Z,100488.92
2019-05-02T09:46:07.312Z,100487.97
2019-05-02T09:48:36.664Z,100490.49
2019-05-02T09:51:15.562Z,100479.16
2019-05-02T09:53:37.142Z,100473.44
2019-05-02T09:56:06.760Z,100472.05
2019-05-02T09:58:36.123Z,100470.57
2019-05-02T10:01:13.699Z,100464.52
2019-05-02T10:03:43.326Z,100463.84
2019-05-02T10:06:17.874Z,100465.48
2019-05-02T10:08:46.595Z,100459.33
2019-05-02T10:11:16.968Z,100455.55
2019-05-02T10:13:46.205Z,100458.30
2019-05-02T10:16:18.097Z,100456.27
2019-05-02T10:18:46.931Z,100451.55
2019-05-02T10:21:17.309Z,100452.64
2019-05-02T10:23:51.733Z,100441.05
2019-05-02T10:26:20.114Z,100443.84
2019-05-02T10:28:53.399Z,100433.73
2019-05-02T10:31:22.167Z,100434.63
2019-05-02T10:33:52.934Z,100433.81
2019-05-02T10:36:24.013Z,100422.80
2019-05-02T10:38:59.032Z,100424.98
2019-05-02T10:41:25.154Z,100424.63
2019-05-02T10:43:57.660Z,100416.20
2019-05-02T10:46:32.120Z,100412.38
2019-05-02T10:49:01.991Z,100402.65
2019-05-02T10:51:34.608Z,100398.86
2019-05-02T10:54:05.221Z,100398.86
2019-05-02T10:56:34.832Z,100393.09
2019-05-02T10:59:04.352Z,100400.41
2019-05-02T11:01:35.775Z,100393.14
2019-05-02T11:04:06.869Z,100397.83
2019-05-02T11:06:37.268Z,100394.23
2019-05-02T11:09:09.324Z,100388.27
2019-05-02T11:11:39.397Z,100389.66
2019-05-02T11:14:11.976Z,100378.51
2019-05-02T11:16:46.357Z,100379.80
2019-05-02T11:19:17.649Z,100375.03
2019-05-02T11:21:56.436Z,100370.42
2019-05-02T11:24:18.716Z,100373.90
2019-05-02T11:26:48.191Z,100363.81
2019-05-02T11:29:17.886Z,100366.45
2019-05-02T11:31:47.569Z,100365.73
2019-05-02T11:34:16.975Z,100366.14
2019-05-02T11:36:46.369Z,100362.08
2019-05-02T11:39:24.735Z,100353.17
2019-05-02T11:41:47.302Z,100351.70
2019-05-02T11:44:16.888Z,100345.29
2019-05-02T11:46:47.110Z,100348.52
2019-05-02T11:49:16.551Z,100344.99
2019-05-02T11:51:51.297Z,100332.72
2019-05-02T11:54:18.463Z,100332.72
2019-05-02T11:56:49.305Z,100341.55
2019-05-02T11:59:22.585Z,100339.50
2019-05-02T12:01:59.388Z,100336.59
2019-05-02T12:04:24.097Z,100333.67
2019-05-02T12:07:00.916Z,100336.20
2019-05-02T12:09:24.932Z,100327.23
2019-05-02T12:11:56.626Z,100331.31
2019-05-02T12:14:27.474Z,100323.70
2019-05-02T12:16:56.576Z,100311.72
2019-05-02T12:19:26.083Z,100324.41
2019-05-02T12:21:56.479Z,100311.90
2019-05-02T12:24:26.300Z,100312.08
2019-05-02T12:26:56.018Z,100315.09
2019-05-02T12:29:25.391Z,100316.62
2019-05-02T12:32:15.684Z,100309.31
2019-05-02T12:34:46.320Z,100309.31
2019-05-02T12:37:16.956Z,100313.20
2019-05-02T12:39:46.618Z,100315.91
2019-05-02T12:42:16.444Z,100312.67
2019-05-02T12:44:46.469Z,100303.11
2019-05-02T12:47:16.070Z,100303.11
2019-05-02T12:49:46.350Z,100303.58
2019-05-02T12:52:15.740Z,100312.87
2019-05-02T12:54:46.541Z,100309.92
2019-05-02T12:57:16.117Z,100309.22
2019-05-02T12:59:46.461Z,100315.88
2019-05-02T13:02:17.718Z,100309.11
2019-05-02T13:04:47.391Z,100318.68
2019-05-02T13:07:17.081Z,100310.20
2019-05-02T13:09:46.583Z,100309.73
2019-05-02T13:12:22.594Z,100309.73
2019-05-02T13:14:52.955Z,100316.97
2019-05-02T13:17:22.719Z,100323.02
2019-05-02T13:19:56.880Z,100325.58
2019-05-02T13:22:25.111Z,100320.62
2019-05-02T13:24:56.457Z,100313.19
2019-05-02T13:27:33.680Z,100325.16
2019-05-02T13:29:58.893Z,100322.83
2019-05-02T13:32:32.946Z,100320.09
2019-05-02T13:35:04.167Z,100318.63
2019-05-02T13:37:33.540Z,100314.74
2019-05-02T13:40:05.343Z,100306.70
2019-05-02T13:42:34.718Z,100314.05
2019-05-02T13:45:17.059Z,100307.09
2019-05-02T13:47:46.644Z,100303.83
2019-05-02T13:50:16.454Z,100299.06
2019-05-02T13:52:53.039Z,100303.47
2019-05-02T13:55:19.499Z,100302.96
2019-05-02T13:57:49.190Z,100298.58
2019-05-02T14:00:23.145Z,100304.22
2019-05-02T14:02:52.588Z,100306.84
2019-05-02T14:05:22.356Z,100303.20
2019-05-02T14:08:12.147Z,100295.48
2019-05-02T14:10:43.230Z,100292.06
2019-05-02T14:13:12.756Z,100300.25
2019-05-02T14:15:42.291Z,100289.70
2019-05-02T14:18:12.441Z,100291.51
2019-05-02T14:20:42.756Z,100286.45
2019-05-02T14:23:13.389Z,100277.97
2019-05-02T14:25:42.771Z,100283.91
2019-05-02T14:28:13.037Z,100286.25
2019-05-02T14:30:46.111Z,100280.68
2019-05-02T14:33:15.518Z,100273.66
2019-05-02T14:35:46.270Z,100267.05
2019-05-02T14:38:16.217Z,100262.98
2019-05-02T14:40:55.019Z,100254.97
2019-05-02T14:43:29.125Z,100250.42
2019-05-02T14:45:58.685Z,100248.38
2019-05-02T14:48:40.053Z,100246.22
2019-05-02T14:51:01.849Z,100249.06
2019-05-02T14:53:32.079Z,100247.43
2019-05-02T14:56:06.162Z,100255.20
2019-05-02T14:58:37.671Z,100251.77
2019-05-02T15:01:05.546Z,100248.19
2019-05-02T15:03:35.215Z,100251.94
2019-05-02T15:06:06.986Z,100245.72
2019-05-02T15:08:36.856Z,100243.61
2019-05-02T15:11:07.336Z,100242.92
2019-05-02T15:13:40.953Z,100240.37
2019-05-02T15:16:12.343Z,100245.19
2019-05-02T15:18:41.913Z,100248.17
2019-05-02T15:21:16.364Z,100244.11
2019-05-02T15:23:43.672Z,100246.05
2019-05-02T15:26:14.124Z,100247.48
2019-05-02T15:28:43.944Z,100235.77
2019-05-02T15:31:18.940Z,100239.02
2019-05-02T15:33:48.561Z,100235.95
2019-05-02T15:36:18.257Z,100237.41
2019-05-02T15:38:48.061Z,100238.17
2019-05-02T15:41:17.579Z,100242.78
2019-05-02T15:43:49.256Z,100242.78
2019-05-02T15:46:23.672Z,100236.52
2019-05-02T15:48:49.101Z,100221.92
2019-05-02T15:51:18.902Z,100228.88
2019-05-02T15:54:04.988Z,100224.00
2019-05-02T15:56:24.455Z,100221.19
2019-05-02T15:58:58.015Z,100225.95
2019-05-02T16:01:36.656Z,100223.13
2019-05-02T16:04:05.559Z,100224.38
2019-05-02T16:06:34.945Z,100218.98
2019-05-02T16:09:06.594Z,100218.14
2019-05-02T16:11:37.871Z,100226.05
2019-05-02T16:14:07.263Z,100216.37
2019-05-02T16:16:43.549Z,100224.70
2019-05-02T16:19:08.289Z,100216.25
2019-05-02T16:21:48.542Z,100224.16
2019-05-02T16:24:22.924Z,100221.78
2019-05-02T16:26:56.409Z,100218.53
2019-05-02T16:29:28.415Z,100220.53
2019-05-02T16:31:59.729Z,100223.41
2019-05-02T16:34:33.944Z,100221.19
2019-05-02T16:37:16.632Z,100224.19
2019-05-02T16:39:49.478Z,100222.81
2019-05-02T16:42:15.035Z,100222.30
2019-05-02T16:44:44.411Z,100223.33
2019-05-02T16:47:14.557Z,100217.75
2019-05-02T16:49:47.878Z,100214.69
2019-05-02T16:52:16.166Z,100219.51
2019-05-02T16:54:45.951Z,100216.86
2019-05-02T16:57:17.515Z,100209.67
2019-05-02T16:59:47.260Z,100218.96
2019-05-02T17:02:17.017Z,100207.94
2019-05-02T17:04:47.414Z,100203.47
2019-05-02T17:07:18.599Z,100206.63
2019-05-02T17:09:52.828Z,100197.13
2019-05-02T17:12:22.271Z,100201.53
2019-05-02T17:15:09.038Z,100203.53
2019-05-02T17:17:38.423Z,100206.53
2019-05-02T17:20:13.032Z,100203.73
2019-05-02T17:22:41.462Z,100215.69
2019-05-02T17:25:12.435Z,100213.11
2019-05-02T17:27:44.424Z,100208.41
2019-05-02T17:30:14.401Z,100208.86
2019-05-02T17:32:44.342Z,100206.15
2019-05-02T17:35:14.661Z,100207.50
2019-05-02T17:37:48.561Z,100204.56
2019-05-02T17:40:16.801Z,100204.18
2019-05-02T17:42:47.496Z,100211.16
2019-05-02T17:45:17.676Z,100210.06
2019-05-02T17:47:48.321Z,100212.22
2019-05-02T17:50:36.383Z,100221.64
2019-05-02T17:53:07.964Z,100221.57
2019-05-02T17:55:40.253Z,100227.30
2019-05-02T17:58:12.340Z,100238.87
2019-05-02T18:00:47.508Z,100230.58
2019-05-02T18:03:15.502Z,100235.86
2019-05-02T18:05:45.111Z,100234.39
2019-05-02T18:08:14.915Z,100244.50
2019-05-02T18:10:44.361Z,100240.72
2019-05-02T18:13:13.747Z,100241.72
2019-05-02T18:15:43.223Z,100239.81
2019-05-02T18:18:12.699Z,100240.37
2019-05-02T18:20:46.383Z,100235.03
2019-05-02T18:23:13.354Z,100234.52
2019-05-02T18:25:42.983Z,100241.80
2019-05-02T18:28:15.880Z,100248.80
2019-05-02T18:30:43.464Z,100246.73
2019-05-02T18:33:13.226Z,100248.64
2019-05-02T18:35:46.798Z,100250.19
2019-05-02T18:38:15.923Z,100246.30
2019-05-02T18:40:44.966Z,100250.87
2019-05-02T18:43:14.362Z,100250.99
2019-05-02T18:45:43.758Z,100255.80
2019-05-02T18:48:13.248Z,100256.12
2019-05-02T18:50:46.942Z,100253.57
2019-05-02T18:53:18.713Z,100256.56
2019-05-02T18:55:47.651Z,100252.59
2019-05-02T18:58:17.280Z,100258.23
2019-05-02T19:00:47.878Z,100250.37
2019-05-02T19:03:17.462Z,100264.80
2019-05-02T19:05:51.498Z,100269.66
2019-05-02T19:08:30.674Z,100269.53
2019-05-02T19:11:02.463Z,100278.23
2019-05-02T19:13:22.349Z,100278.45
2019-05-02T19:15:53.458Z,100285.80
2019-05-02T19:18:22.907Z,100292.42
2019-05-02T19:20:57.554Z,100293.84
2019-05-02T19:23:27.151Z,100299.72
2019-05-02T19:25:56.827Z,100298.23
2019-05-02T19:28:29.083Z,100294.48
2019-05-02T19:31:03.085Z,100307.27
2019-05-02T19:33:31.959Z,100309.61
2019-05-02T19:36:02.785Z,100319.13
2019-05-02T19:38:34.787Z,100321.28
2019-05-02T19:41:08.761Z,100329.73
2019-05-02T19:43:40.490Z,100336.80
2019-05-02T19:46:07.150Z,100332.69
2019-05-02T19:48:37.403Z,100331.38
2019-05-02T19:51:12.694Z,100339.53
2019-05-02T19:53:40.198Z,100346.11
2019-05-02T19:56:09.857Z,100350.48
2019-05-02T19:58:42.716Z,100357.90
2019-05-02T20:01:10.315Z,100361.36
2019-05-02T20:03:40.045Z,100353.56
2019-05-02T20:06:09.443Z,100358.78
2019-05-02T20:08:38.967Z,100361.18
2019-05-02T20:11:08.646Z,100363.80
2019-05-02T20:13:38.313Z,100366.56
2019-05-02T20:16:26.216Z,100362.18
2019-05-02T20:18:55.916Z,100365.30
2019-05-02T20:21:29.646Z,100369.14
2019-05-02T20:24:01.424Z,100372.61
2019-05-02T20:26:32.557Z,100368.11
2019-05-02T20:29:02.297Z,100368.50
2019-05-02T20:31:32.257Z,100373.15
2019-05-02T20:34:04.785Z,100380.53
2019-05-02T20:36:34.321Z,100382.50
2019-05-02T20:39:06.968Z,100386.42
2019-05-02T20:41:36.937Z,100382.89
2019-05-02T20:44:06.288Z,100385.73
2019-05-02T20:46:35.969Z,100386.63
2019-05-02T20:49:05.399Z,100385.30
2019-05-02T20:51:35.072Z,100383.95
2019-05-02T20:54:04.675Z,100380.66
2019-05-02T20:56:34.115Z,100386.05
2019-05-02T20:59:03.567Z,100393.52
2019-05-02T21:01:33.113Z,100395.84
2019-05-02T21:04:02.878Z,100396.72
2019-05-02T21:06:40.669Z,100394.40
2019-05-02T21:09:10.859Z,100393.66
2019-05-02T21:11:41.933Z,100401.36
2019-05-02T21:14:12.303Z,100398.77
2019-05-02T21:16:42.026Z,100399.04
2019-05-02T21:19:12.392Z,100406.00
2019-05-02T21:21:42.683Z,100408.19
2019-05-02T21:24:12.451Z,100409.91
2019-05-02T21:26:42.231Z,100414.41
2019-05-02T21:29:15.064Z,100407.94
2019-05-02T21:31:44.786Z,100409.66
2019-05-02T21:34:14.219Z,100405.63
2019-05-02T21:36:43.581Z,100416.25
2019-05-02T21:39:13.599Z,100417.83
2019-05-02T21:41:43.284Z,100409.75
2019-05-02T21:44:13.291Z,100404.73
2019-05-02T21:46:42.716Z,100415.51
2019-05-02T21:49:13.923Z,100421.36
2019-05-02T21:51:47.957Z,100426.05
2019-05-02T21:54:18.981Z,100421.50
2019-05-02T21:56:52.107Z,100425.69
2019-05-02T21:59:22.481Z,100421.41
2019-05-02T22:01:53.936Z,100422.05
2019-05-02T22:04:23.366Z,100423.63
2019-05-02T22:06:52.743Z,100416.30
2019-05-02T22:09:23.069Z,100428.17
2019-05-02T22:11:52.637Z,100429.39
2019-05-02T22:14:23.327Z,100424.51
2019-05-02T22:16:53.164Z,100430.63
2019-05-02T22:19:22.570Z,100429.65
2019-05-02T22:21:52.630Z,100432.20
2019-05-02T22:24:22.216Z,100433.91
2019-05-02T22:26:52.617Z,100434.41
2019-05-02T22:29:22.397Z,100435.89
2019-05-02T22:31:54.428Z,100437.93
2019-05-02T22:34:23.116Z,100441.02
2019-05-02T22:36:54.356Z,100440.52
2019-05-02T22:39:31.783Z,100443.20
2019-05-02T22:42:04.343Z,100447.00
2019-05-02T22:44:32.662Z,100457.77
2019-05-02T22:47:02.297Z,100446.75
2019-05-02T22:49:31.979Z,100446.75
2019-05-02T22:52:01.618Z,100459.84
2019-05-02T22:54:33.776Z,100460.67
2019-05-02T22:57:02.706Z,100460.67
2019-05-02T22:59:32.380Z,100470.55
2019-05-02T23:02:02.733Z,100472.25
2019-05-02T23:04:32.700Z,100473.73
2019-05-02T23:07:02.546Z,100462.73
2019-05-02T23:09:31.847Z,100467.23
2019-05-02T23:12:02.827Z,100468.83
2019-05-02T23:14:32.699Z,100467.11
2019-05-02T23:17:02.486Z,100473.20
2019-05-02T23:19:31.930Z,100464.78
2019-05-02T23:22:02.082Z,100469.70
2019-05-02T23:24:39.115Z,100474.83
2019-05-02T23:27:22.826Z,100483.25
2019-05-02T23:29:52.477Z,100483.25
2019-05-02T23:32:23.618Z,100481.08
2019-05-02T23:34:53.419Z,100480.84
2019-05-02T23:37:22.795Z,100485.56
2019-05-02T23:39:52.472Z,100485.83
2019-05-02T23:42:22.802Z,100476.41
2019-05-02T23:44:52.476Z,100481.89
2019-05-02T23:47:22.472Z,100480.05
2019-05-02T23:49:52.160Z,100480.28
2019-05-02T23:52:22.455Z,100487.63
2019-05-02T23:54:52.532Z,100481.53
2019-05-02T23:57:23.401Z,100498.88
2019-05-02T23:59:52.751Z,100492.75
